Palmer Township, Pennsylvania
Current Conditions -  °F | °C
As of 6:51 AM on Thursday 23 Oct 2014 (Local Time) from KABE Reporting Station
Light Rain Light Rain  
Wind Chill: 51°   Ceiling: 6000
Heat Index: 51°   Visibility: 10mi
Dew Point: 42°   Wind: 14mph
Humidity: 71%   Direction: 330°NNW
Pressure: 29.79"   Gusts: 23mph
Location:  40.6892°N, 75.2775°W
Report Text: KABE 231051Z 33012G20KT 10SM -RA FEW046 OVC060 11/06 A2979 RMK AO2 RAB41 SLP088 P0000 T01060056
Loading
Personal Weather Stations






























Interactive Weather Map
Tropical Storm Tracking
New forecast layout! Learn more

10-Day Weather Forecast

Advertisements
Track Severe Weather on mobile